22°C Temp
17°C Dewpoint
73% Humidity
Temperature
5 KM/H
3 MPH
3 KTS
40°
North East

Wind Speed
Overcast
Conditions
Pressure 1020.62 (hPa) - 30.14 (in)
Visibility 8.7 (mi) - 14.0 (km)

Current Conditions
CYZE
Location 50(km)
Metar :CYZE 140300Z AUTO 04003KT 9SM OVC160 22/17 A3014 RMK SLP207 DENSITY ALT 1200FT
Thu 13th August 23:00 pm

Airport
  Metar Aviation API Data Provided by https://www.checkwx.com/ PHP scripts by weather34.com ©2020